sensor_id;sensor_type;location;lat;lon;timestamp;temperature;humidity
20845;DHT22;10583;49.084;8.646;2022-12-07T00:01:17;4.00;99.90
20845;DHT22;10583;49.084;8.646;2022-12-07T00:03:47;4.00;99.90
20845;DHT22;10583;49.084;8.646;2022-12-07T00:06:15;4.00;99.90
20845;DHT22;10583;49.084;8.646;2022-12-07T00:08:42;4.00;99.90
20845;DHT22;10583;49.084;8.646;2022-12-07T00:11:10;4.00;99.90
20845;DHT22;10583;49.084;8.646;2022-12-07T00:13:37;4.00;99.90
20845;DHT22;10583;49.084;8.646;2022-12-07T00:16:07;3.90;99.90
20845;DHT22;10583;49.084;8.646;2022-12-07T00:18:36;3.90;99.90
20845;DHT22;10583;49.084;8.646;2022-12-07T00:21:05;3.90;99.90
20845;DHT22;10583;49.084;8.646;2022-12-07T00:23:33;3.90;99.90
20845;DHT22;10583;49.084;8.646;2022-12-07T00:26:04;3.80;99.90
20845;DHT22;10583;49.084;8.646;2022-12-07T00:28:30;3.90;99.90
20845;DHT22;10583;49.084;8.646;2022-12-07T00:31:01;3.90;99.90
20845;DHT22;10583;49.084;8.646;2022-12-07T00:33:27;3.90;99.90
20845;DHT22;10583;49.084;8.646;2022-12-07T00:35:56;3.80;99.90
20845;DHT22;10583;49.084;8.646;2022-12-07T00:38:23;3.90;99.90
20845;DHT22;10583;49.084;8.646;2022-12-07T00:40:55;3.80;99.90
20845;DHT22;10583;49.084;8.646;2022-12-07T00:43:22;3.80;99.90
20845;DHT22;10583;49.084;8.646;2022-12-07T00:45:48;3.80;99.90
20845;DHT22;10583;49.084;8.646;2022-12-07T00:48:15;3.80;99.90
20845;DHT22;10583;49.084;8.646;2022-12-07T00:50:42;3.70;99.90
20845;DHT22;10583;49.084;8.646;2022-12-07T00:53:10;3.70;99.90
20845;DHT22;10583;49.084;8.646;2022-12-07T00:55:37;3.60;99.90
20845;DHT22;10583;49.084;8.646;2022-12-07T00:58:04;3.60;99.90
20845;DHT22;10583;49.084;8.646;2022-12-07T01:00:31;3.60;99.90
20845;DHT22;10583;49.084;8.646;2022-12-07T01:02:58;3.60;99.90
20845;DHT22;10583;49.084;8.646;2022-12-07T01:05:25;3.50;99.90
20845;DHT22;10583;49.084;8.646;2022-12-07T01:07:51;3.50;99.90
20845;DHT22;10583;49.084;8.646;2022-12-07T01:10:19;3.60;99.90
20845;DHT22;10583;49.084;8.646;2022-12-07T01:12:46;3.50;99.90
20845;DHT22;10583;49.084;8.646;2022-12-07T01:15:13;3.50;99.90
20845;DHT22;10583;49.084;8.646;2022-12-07T01:17:40;3.50;99.90
20845;DHT22;10583;49.084;8.646;2022-12-07T01:20:07;3.50;99.90
20845;DHT22;10583;49.084;8.646;2022-12-07T01:22:36;3.40;99.90
20845;DHT22;10583;49.084;8.646;2022-12-07T01:25:04;3.40;99.90
20845;DHT22;10583;49.084;8.646;2022-12-07T01:27:32;3.50;99.90
20845;DHT22;10583;49.084;8.646;2022-12-07T01:29:59;3.40;99.90
20845;DHT22;10583;49.084;8.646;2022-12-07T01:32:26;3.40;99.90
20845;DHT22;10583;49.084;8.646;2022-12-07T01:34:53;3.40;99.90
20845;DHT22;10583;49.084;8.646;2022-12-07T01:37:20;3.40;99.90
20845;DHT22;10583;49.084;8.646;2022-12-07T01:39:48;3.40;99.90
20845;DHT22;10583;49.084;8.646;2022-12-07T01:42:15;3.40;99.90
20845;DHT22;10583;49.084;8.646;2022-12-07T01:47:53;3.40;99.90
20845;DHT22;10583;49.084;8.646;2022-12-07T01:50:21;3.50;99.90
20845;DHT22;10583;49.084;8.646;2022-12-07T01:52:52;3.40;99.90
20845;DHT22;10583;49.084;8.646;2022-12-07T01:55:20;3.40;99.90
20845;DHT22;10583;49.084;8.646;2022-12-07T01:57:49;3.40;99.90
20845;DHT22;10583;49.084;8.646;2022-12-07T02:00:17;3.40;99.90
20845;DHT22;10583;49.084;8.646;2022-12-07T02:02:46;3.30;99.90
20845;DHT22;10583;49.084;8.646;2022-12-07T02:05:17;3.20;99.90
20845;DHT22;10583;49.084;8.646;2022-12-07T02:07:46;3.10;99.90
20845;DHT22;10583;49.084;8.646;2022-12-07T02:10:15;3.00;99.90
20845;DHT22;10583;49.084;8.646;2022-12-07T02:12:44;3.10;99.90
20845;DHT22;10583;49.084;8.646;2022-12-07T02:15:11;3.20;99.90
20845;DHT22;10583;49.084;8.646;2022-12-07T02:17:45;3.20;99.90
20845;DHT22;10583;49.084;8.646;2022-12-07T02:20:23;3.30;99.90
20845;DHT22;10583;49.084;8.646;2022-12-07T02:23:17;3.40;99.90
20845;DHT22;10583;49.084;8.646;2022-12-07T02:28:55;3.50;99.90
20845;DHT22;10583;49.084;8.646;2022-12-07T02:31:28;3.50;99.90
20845;DHT22;10583;49.084;8.646;2022-12-07T02:34:04;3.50;99.90
20845;DHT22;10583;49.084;8.646;2022-12-07T02:36:36;3.50;99.90
20845;DHT22;10583;49.084;8.646;2022-12-07T02:39:09;3.50;99.90
20845;DHT22;10583;49.084;8.646;2022-12-07T02:41:42;3.60;99.90
20845;DHT22;10583;49.084;8.646;2022-12-07T02:44:12;3.50;99.90
20845;DHT22;10583;49.084;8.646;2022-12-07T02:46:42;3.60;99.90
20845;DHT22;10583;49.084;8.646;2022-12-07T02:49:09;3.60;99.90
20845;DHT22;10583;49.084;8.646;2022-12-07T02:51:39;3.60;99.90
20845;DHT22;10583;49.084;8.646;2022-12-07T02:54:10;3.60;99.90
20845;DHT22;10583;49.084;8.646;2022-12-07T02:56:44;3.50;99.90
20845;DHT22;10583;49.084;8.646;2022-12-07T02:59:20;3.60;99.90
20845;DHT22;10583;49.084;8.646;2022-12-07T03:01:58;3.50;99.90
20845;DHT22;10583;49.084;8.646;2022-12-07T03:04:37;3.50;99.90
20845;DHT22;10583;49.084;8.646;2022-12-07T03:07:11;3.50;99.90
20845;DHT22;10583;49.084;8.646;2022-12-07T03:09:46;3.40;99.90
20845;DHT22;10583;49.084;8.646;2022-12-07T03:12:19;3.40;99.90
20845;DHT22;10583;49.084;8.646;2022-12-07T03:14:52;3.40;99.90
20845;DHT22;10583;49.084;8.646;2022-12-07T03:17:22;3.40;99.90
20845;DHT22;10583;49.084;8.646;2022-12-07T03:19:54;3.40;99.90
20845;DHT22;10583;49.084;8.646;2022-12-07T03:22:23;3.40;99.90
20845;DHT22;10583;49.084;8.646;2022-12-07T03:24:55;3.40;99.90
20845;DHT22;10583;49.084;8.646;2022-12-07T03:27:26;3.40;99.90
20845;DHT22;10583;49.084;8.646;2022-12-07T03:30:00;3.40;99.90
20845;DHT22;10583;49.084;8.646;2022-12-07T03:32:32;3.40;99.90
20845;DHT22;10583;49.084;8.646;2022-12-07T03:35:03;3.50;99.90
20845;DHT22;10583;49.084;8.646;2022-12-07T03:37:34;3.50;99.90
20845;DHT22;10583;49.084;8.646;2022-12-07T03:40:08;3.40;99.90
20845;DHT22;10583;49.084;8.646;2022-12-07T03:42:36;3.30;99.90
20845;DHT22;10583;49.084;8.646;2022-12-07T03:45:06;3.30;99.90
20845;DHT22;10583;49.084;8.646;2022-12-07T03:47:36;3.30;99.90
20845;DHT22;10583;49.084;8.646;2022-12-07T03:50:07;3.30;99.90
20845;DHT22;10583;49.084;8.646;2022-12-07T03:52:41;3.30;99.90
20845;DHT22;10583;49.084;8.646;2022-12-07T03:55:11;3.30;99.90
20845;DHT22;10583;49.084;8.646;2022-12-07T03:57:43;3.30;99.90
20845;DHT22;10583;49.084;8.646;2022-12-07T04:00:12;3.30;99.90
20845;DHT22;10583;49.084;8.646;2022-12-07T04:02:39;3.30;99.90
20845;DHT22;10583;49.084;8.646;2022-12-07T04:05:07;3.30;99.90
20845;DHT22;10583;49.084;8.646;2022-12-07T04:07:34;3.40;99.90
20845;DHT22;10583;49.084;8.646;2022-12-07T04:10:01;3.40;99.90
20845;DHT22;10583;49.084;8.646;2022-12-07T04:12:28;3.40;99.90
20845;DHT22;10583;49.084;8.646;2022-12-07T04:14:54;3.40;99.90
20845;DHT22;10583;49.084;8.646;2022-12-07T04:17:22;3.40;99.90
20845;DHT22;10583;49.084;8.646;2022-12-07T04:19:49;3.40;99.90
20845;DHT22;10583;49.084;8.646;2022-12-07T04:22:16;3.30;99.90
20845;DHT22;10583;49.084;8.646;2022-12-07T04:24:42;3.40;99.90
20845;DHT22;10583;49.084;8.646;2022-12-07T04:27:09;3.40;99.90
20845;DHT22;10583;49.084;8.646;2022-12-07T04:29:36;3.40;99.90
20845;DHT22;10583;49.084;8.646;2022-12-07T04:32:03;3.40;99.90
20845;DHT22;10583;49.084;8.646;2022-12-07T04:34:31;3.40;99.90
20845;DHT22;10583;49.084;8.646;2022-12-07T04:36:58;3.40;99.90
20845;DHT22;10583;49.084;8.646;2022-12-07T04:39:27;3.30;99.90
20845;DHT22;10583;49.084;8.646;2022-12-07T04:41:54;3.30;99.90
20845;DHT22;10583;49.084;8.646;2022-12-07T04:44:22;3.40;99.90
20845;DHT22;10583;49.084;8.646;2022-12-07T04:46:49;3.30;99.90
20845;DHT22;10583;49.084;8.646;2022-12-07T04:49:16;3.30;99.90
20845;DHT22;10583;49.084;8.646;2022-12-07T04:51:44;3.30;99.90
20845;DHT22;10583;49.084;8.646;2022-12-07T04:54:11;3.40;99.90
20845;DHT22;10583;49.084;8.646;2022-12-07T04:56:38;3.40;99.90
20845;DHT22;10583;49.084;8.646;2022-12-07T04:59:05;3.40;99.90
20845;DHT22;10583;49.084;8.646;2022-12-07T05:01:32;3.40;99.90
20845;DHT22;10583;49.084;8.646;2022-12-07T05:04:00;3.40;99.90
20845;DHT22;10583;49.084;8.646;2022-12-07T05:06:26;3.40;99.90
20845;DHT22;10583;49.084;8.646;2022-12-07T05:08:54;3.40;99.90
20845;DHT22;10583;49.084;8.646;2022-12-07T05:11:21;3.40;99.90
20845;DHT22;10583;49.084;8.646;2022-12-07T05:14:10;3.40;99.90
20845;DHT22;10583;49.084;8.646;2022-12-07T05:16:38;3.40;99.90
20845;DHT22;10583;49.084;8.646;2022-12-07T05:19:05;3.40;99.90
20845;DHT22;10583;49.084;8.646;2022-12-07T05:21:32;3.40;99.90
20845;DHT22;10583;49.084;8.646;2022-12-07T05:24:00;3.30;99.90
20845;DHT22;10583;49.084;8.646;2022-12-07T05:26:27;3.40;99.90
20845;DHT22;10583;49.084;8.646;2022-12-07T05:28:54;3.30;99.90
20845;DHT22;10583;49.084;8.646;2022-12-07T05:31:23;3.40;99.90
20845;DHT22;10583;49.084;8.646;2022-12-07T05:33:50;3.40;99.90
20845;DHT22;10583;49.084;8.646;2022-12-07T05:36:17;3.30;99.90
20845;DHT22;10583;49.084;8.646;2022-12-07T05:38:44;3.40;99.90
20845;DHT22;10583;49.084;8.646;2022-12-07T05:41:15;3.30;99.90
20845;DHT22;10583;49.084;8.646;2022-12-07T05:43:56;3.40;99.90
20845;DHT22;10583;49.084;8.646;2022-12-07T05:46:22;3.40;99.90
20845;DHT22;10583;49.084;8.646;2022-12-07T05:48:49;3.30;99.90
20845;DHT22;10583;49.084;8.646;2022-12-07T05:51:16;3.30;99.90
20845;DHT22;10583;49.084;8.646;2022-12-07T05:53:43;3.40;99.90
20845;DHT22;10583;49.084;8.646;2022-12-07T05:56:09;3.40;99.90
20845;DHT22;10583;49.084;8.646;2022-12-07T05:58:37;3.40;99.90
20845;DHT22;10583;49.084;8.646;2022-12-07T06:01:22;3.40;99.90
20845;DHT22;10583;49.084;8.646;2022-12-07T06:03:48;3.40;99.90
20845;DHT22;10583;49.084;8.646;2022-12-07T06:06:15;3.40;99.90
20845;DHT22;10583;49.084;8.646;2022-12-07T06:08:42;3.40;99.90
20845;DHT22;10583;49.084;8.646;2022-12-07T06:11:08;3.40;99.90
20845;DHT22;10583;49.084;8.646;2022-12-07T06:13:54;3.40;99.90
20845;DHT22;10583;49.084;8.646;2022-12-07T06:16:21;3.40;99.90
20845;DHT22;10583;49.084;8.646;2022-12-07T06:18:47;3.40;99.90
20845;DHT22;10583;49.084;8.646;2022-12-07T06:21:14;3.40;99.90
20845;DHT22;10583;49.084;8.646;2022-12-07T06:23:41;3.30;99.90
20845;DHT22;10583;49.084;8.646;2022-12-07T06:26:07;3.30;99.90
20845;DHT22;10583;49.084;8.646;2022-12-07T06:28:34;3.40;99.90
20845;DHT22;10583;49.084;8.646;2022-12-07T06:31:03;3.40;99.90
20845;DHT22;10583;49.084;8.646;2022-12-07T06:33:29;3.40;99.90
20845;DHT22;10583;49.084;8.646;2022-12-07T06:35:56;3.40;99.90
20845;DHT22;10583;49.084;8.646;2022-12-07T06:38:23;3.40;99.90
20845;DHT22;10583;49.084;8.646;2022-12-07T06:40:50;3.30;99.90
20845;DHT22;10583;49.084;8.646;2022-12-07T06:43:17;3.40;99.90
20845;DHT22;10583;49.084;8.646;2022-12-07T06:45:44;3.40;99.90
20845;DHT22;10583;49.084;8.646;2022-12-07T06:48:13;3.30;99.90
20845;DHT22;10583;49.084;8.646;2022-12-07T06:50:40;3.30;99.90
20845;DHT22;10583;49.084;8.646;2022-12-07T06:53:08;3.20;99.90
20845;DHT22;10583;49.084;8.646;2022-12-07T06:55:36;3.30;99.90
20845;DHT22;10583;49.084;8.646;2022-12-07T06:58:03;3.30;99.90
20845;DHT22;10583;49.084;8.646;2022-12-07T07:00:30;3.20;99.90
20845;DHT22;10583;49.084;8.646;2022-12-07T07:02:57;3.20;99.90
20845;DHT22;10583;49.084;8.646;2022-12-07T07:05:25;3.20;99.90
20845;DHT22;10583;49.084;8.646;2022-12-07T07:07:51;3.30;99.90
20845;DHT22;10583;49.084;8.646;2022-12-07T07:10:18;3.30;99.90
20845;DHT22;10583;49.084;8.646;2022-12-07T07:12:45;3.30;99.90
20845;DHT22;10583;49.084;8.646;2022-12-07T07:15:11;3.30;99.90
20845;DHT22;10583;49.084;8.646;2022-12-07T07:17:38;3.30;99.90
20845;DHT22;10583;49.084;8.646;2022-12-07T07:20:06;3.30;99.90
20845;DHT22;10583;49.084;8.646;2022-12-07T07:22:34;3.30;99.90
20845;DHT22;10583;49.084;8.646;2022-12-07T07:25:01;3.30;99.90
20845;DHT22;10583;49.084;8.646;2022-12-07T07:27:27;3.30;99.90
20845;DHT22;10583;49.084;8.646;2022-12-07T07:29:54;3.30;99.90
20845;DHT22;10583;49.084;8.646;2022-12-07T07:32:21;3.30;99.90
20845;DHT22;10583;49.084;8.646;2022-12-07T07:34:48;3.30;99.90
20845;DHT22;10583;49.084;8.646;2022-12-07T07:37:14;3.30;99.90
20845;DHT22;10583;49.084;8.646;2022-12-07T07:39:42;3.30;99.90
20845;DHT22;10583;49.084;8.646;2022-12-07T07:42:09;3.40;99.90
20845;DHT22;10583;49.084;8.646;2022-12-07T07:44:36;3.40;99.90
20845;DHT22;10583;49.084;8.646;2022-12-07T07:47:03;3.40;99.90
20845;DHT22;10583;49.084;8.646;2022-12-07T07:49:30;3.50;99.90
20845;DHT22;10583;49.084;8.646;2022-12-07T07:51:56;3.50;99.90
20845;DHT22;10583;49.084;8.646;2022-12-07T07:54:23;3.50;99.90
20845;DHT22;10583;49.084;8.646;2022-12-07T07:56:52;3.50;99.90
20845;DHT22;10583;49.084;8.646;2022-12-07T07:59:18;3.60;99.90
20845;DHT22;10583;49.084;8.646;2022-12-07T08:01:45;3.50;99.90
20845;DHT22;10583;49.084;8.646;2022-12-07T08:04:12;3.60;99.90
20845;DHT22;10583;49.084;8.646;2022-12-07T08:06:38;3.60;99.90
20845;DHT22;10583;49.084;8.646;2022-12-07T08:09:07;3.60;99.90
20845;DHT22;10583;49.084;8.646;2022-12-07T08:11:34;3.60;99.90
20845;DHT22;10583;49.084;8.646;2022-12-07T08:14:03;3.60;99.90
20845;DHT22;10583;49.084;8.646;2022-12-07T08:16:30;3.60;99.90
20845;DHT22;10583;49.084;8.646;2022-12-07T08:18:56;3.60;99.90
20845;DHT22;10583;49.084;8.646;2022-12-07T08:21:23;3.70;99.90
20845;DHT22;10583;49.084;8.646;2022-12-07T08:23:50;3.70;99.90
20845;DHT22;10583;49.084;8.646;2022-12-07T08:26:17;3.70;99.90
20845;DHT22;10583;49.084;8.646;2022-12-07T08:28:43;3.70;99.90
20845;DHT22;10583;49.084;8.646;2022-12-07T08:31:14;3.80;99.90
20845;DHT22;10583;49.084;8.646;2022-12-07T08:33:42;3.80;99.90
20845;DHT22;10583;49.084;8.646;2022-12-07T08:36:10;3.80;99.90
20845;DHT22;10583;49.084;8.646;2022-12-07T08:38:39;3.80;99.90
20845;DHT22;10583;49.084;8.646;2022-12-07T08:41:06;3.80;99.90
20845;DHT22;10583;49.084;8.646;2022-12-07T08:43:34;3.80;99.90
20845;DHT22;10583;49.084;8.646;2022-12-07T08:46:06;3.80;99.90
20845;DHT22;10583;49.084;8.646;2022-12-07T08:48:36;3.80;99.90
20845;DHT22;10583;49.084;8.646;2022-12-07T08:51:03;3.80;99.90
20845;DHT22;10583;49.084;8.646;2022-12-07T08:53:30;3.80;99.90
20845;DHT22;10583;49.084;8.646;2022-12-07T08:55:57;3.90;99.90
20845;DHT22;10583;49.084;8.646;2022-12-07T08:58:24;3.90;99.90
20845;DHT22;10583;49.084;8.646;2022-12-07T09:00:51;3.90;99.90
20845;DHT22;10583;49.084;8.646;2022-12-07T09:03:18;3.90;99.90
20845;DHT22;10583;49.084;8.646;2022-12-07T09:05:46;4.00;99.90
20845;DHT22;10583;49.084;8.646;2022-12-07T09:08:12;4.00;99.90
20845;DHT22;10583;49.084;8.646;2022-12-07T09:10:39;4.00;99.90
20845;DHT22;10583;49.084;8.646;2022-12-07T09:13:06;4.10;99.90
20845;DHT22;10583;49.084;8.646;2022-12-07T09:15:33;4.10;99.90
20845;DHT22;10583;49.084;8.646;2022-12-07T09:17:59;4.10;99.90
20845;DHT22;10583;49.084;8.646;2022-12-07T09:20:26;4.10;99.90
20845;DHT22;10583;49.084;8.646;2022-12-07T09:22:54;4.10;99.90
20845;DHT22;10583;49.084;8.646;2022-12-07T09:25:21;4.20;99.90
20845;DHT22;10583;49.084;8.646;2022-12-07T09:27:47;4.20;99.90
20845;DHT22;10583;49.084;8.646;2022-12-07T09:30:14;4.20;99.90
20845;DHT22;10583;49.084;8.646;2022-12-07T09:32:41;4.30;99.90
20845;DHT22;10583;49.084;8.646;2022-12-07T09:35:08;4.30;99.90
20845;DHT22;10583;49.084;8.646;2022-12-07T09:37:35;4.30;99.90
20845;DHT22;10583;49.084;8.646;2022-12-07T09:40:04;4.30;99.90
20845;DHT22;10583;49.084;8.646;2022-12-07T09:42:35;4.30;99.90
20845;DHT22;10583;49.084;8.646;2022-12-07T09:45:05;4.20;99.90
20845;DHT22;10583;49.084;8.646;2022-12-07T09:47:33;4.30;99.90
20845;DHT22;10583;49.084;8.646;2022-12-07T09:50:03;4.30;99.90
20845;DHT22;10583;49.084;8.646;2022-12-07T09:52:31;4.40;99.90
20845;DHT22;10583;49.084;8.646;2022-12-07T09:54:57;4.50;99.90
20845;DHT22;10583;49.084;8.646;2022-12-07T09:57:29;4.60;99.90
20845;DHT22;10583;49.084;8.646;2022-12-07T10:00:01;4.60;99.90
20845;DHT22;10583;49.084;8.646;2022-12-07T10:02:35;4.60;99.90
20845;DHT22;10583;49.084;8.646;2022-12-07T10:05:05;4.70;99.90
20845;DHT22;10583;49.084;8.646;2022-12-07T10:07:32;4.60;99.90
20845;DHT22;10583;49.084;8.646;2022-12-07T10:09:59;4.70;99.90
20845;DHT22;10583;49.084;8.646;2022-12-07T10:12:27;4.70;99.90
20845;DHT22;10583;49.084;8.646;2022-12-07T10:14:55;4.70;99.90
20845;DHT22;10583;49.084;8.646;2022-12-07T10:17:39;4.80;99.90
20845;DHT22;10583;49.084;8.646;2022-12-07T10:20:15;4.80;99.90
20845;DHT22;10583;49.084;8.646;2022-12-07T10:22:57;4.80;99.90
20845;DHT22;10583;49.084;8.646;2022-12-07T10:25:27;4.80;99.90
20845;DHT22;10583;49.084;8.646;2022-12-07T10:28:00;4.60;99.90
20845;DHT22;10583;49.084;8.646;2022-12-07T10:30:28;4.50;99.90
20845;DHT22;10583;49.084;8.646;2022-12-07T10:32:56;4.50;99.90
20845;DHT22;10583;49.084;8.646;2022-12-07T10:35:26;4.50;99.90
20845;DHT22;10583;49.084;8.646;2022-12-07T10:37:54;4.60;99.90
20845;DHT22;10583;49.084;8.646;2022-12-07T10:40:28;4.60;99.90
20845;DHT22;10583;49.084;8.646;2022-12-07T10:43:04;4.60;99.90
20845;DHT22;10583;49.084;8.646;2022-12-07T10:45:34;4.60;99.90
20845;DHT22;10583;49.084;8.646;2022-12-07T10:48:07;4.60;99.90
20845;DHT22;10583;49.084;8.646;2022-12-07T10:50:51;4.50;99.90
20845;DHT22;10583;49.084;8.646;2022-12-07T10:53:44;4.50;99.90
20845;DHT22;10583;49.084;8.646;2022-12-07T10:56:32;4.50;99.90
20845;DHT22;10583;49.084;8.646;2022-12-07T10:59:26;4.60;99.90
20845;DHT22;10583;49.084;8.646;2022-12-07T11:02:02;4.60;99.90
20845;DHT22;10583;49.084;8.646;2022-12-07T11:04:38;4.80;99.90
20845;DHT22;10583;49.084;8.646;2022-12-07T11:07:16;4.80;99.90
20845;DHT22;10583;49.084;8.646;2022-12-07T11:10:01;4.90;99.90
20845;DHT22;10583;49.084;8.646;2022-12-07T11:12:39;5.00;99.90
20845;DHT22;10583;49.084;8.646;2022-12-07T11:15:15;5.10;99.90
20845;DHT22;10583;49.084;8.646;2022-12-07T11:17:50;5.10;99.90
20845;DHT22;10583;49.084;8.646;2022-12-07T11:20:34;5.00;99.90
20845;DHT22;10583;49.084;8.646;2022-12-07T11:23:13;5.00;99.90
20845;DHT22;10583;49.084;8.646;2022-12-07T11:25:49;5.00;99.90
20845;DHT22;10583;49.084;8.646;2022-12-07T11:28:30;5.10;99.90
20845;DHT22;10583;49.084;8.646;2022-12-07T11:31:11;5.10;99.90
20845;DHT22;10583;49.084;8.646;2022-12-07T11:33:45;5.20;99.90
20845;DHT22;10583;49.084;8.646;2022-12-07T11:36:24;5.30;99.90
20845;DHT22;10583;49.084;8.646;2022-12-07T11:38:59;5.30;99.90
20845;DHT22;10583;49.084;8.646;2022-12-07T11:41:33;5.30;99.90
20845;DHT22;10583;49.084;8.646;2022-12-07T11:44:05;5.30;99.90
20845;DHT22;10583;49.084;8.646;2022-12-07T11:46:46;5.20;99.90
20845;DHT22;10583;49.084;8.646;2022-12-07T11:49:21;5.10;99.90
20845;DHT22;10583;49.084;8.646;2022-12-07T11:51:53;5.10;99.90
20845;DHT22;10583;49.084;8.646;2022-12-07T11:54:27;5.10;99.90
20845;DHT22;10583;49.084;8.646;2022-12-07T11:56:56;5.10;99.90
20845;DHT22;10583;49.084;8.646;2022-12-07T11:59:29;5.20;99.90
20845;DHT22;10583;49.084;8.646;2022-12-07T12:02:11;5.30;99.90
20845;DHT22;10583;49.084;8.646;2022-12-07T12:04:47;5.30;99.90
20845;DHT22;10583;49.084;8.646;2022-12-07T12:07:21;5.30;99.90
20845;DHT22;10583;49.084;8.646;2022-12-07T12:09:50;5.30;99.90
20845;DHT22;10583;49.084;8.646;2022-12-07T12:12:40;5.30;99.90
20845;DHT22;10583;49.084;8.646;2022-12-07T12:15:22;5.30;99.90
20845;DHT22;10583;49.084;8.646;2022-12-07T12:18:14;5.30;99.90
20845;DHT22;10583;49.084;8.646;2022-12-07T12:20:50;5.20;99.90
20845;DHT22;10583;49.084;8.646;2022-12-07T12:23:21;5.10;99.90
20845;DHT22;10583;49.084;8.646;2022-12-07T12:25:50;5.00;99.90
20845;DHT22;10583;49.084;8.646;2022-12-07T12:28:24;5.00;99.90
20845;DHT22;10583;49.084;8.646;2022-12-07T12:31:06;5.00;99.90
20845;DHT22;10583;49.084;8.646;2022-12-07T12:33:35;5.10;99.90
20845;DHT22;10583;49.084;8.646;2022-12-07T12:36:24;5.40;99.90
20845;DHT22;10583;49.084;8.646;2022-12-07T12:39:08;5.80;99.90
20845;DHT22;10583;49.084;8.646;2022-12-07T12:41:57;6.30;99.90
20845;DHT22;10583;49.084;8.646;2022-12-07T12:47:57;7.10;99.90
20845;DHT22;10583;49.084;8.646;2022-12-07T12:50:28;6.80;99.90
20845;DHT22;10583;49.084;8.646;2022-12-07T12:53:05;6.60;99.90
20845;DHT22;10583;49.084;8.646;2022-12-07T12:56:11;6.40;99.90
20845;DHT22;10583;49.084;8.646;2022-12-07T12:58:43;6.10;99.90
20845;DHT22;10583;49.084;8.646;2022-12-07T13:01:40;6.00;99.90
20845;DHT22;10583;49.084;8.646;2022-12-07T13:04:38;6.00;99.90
20845;DHT22;10583;49.084;8.646;2022-12-07T13:07:12;5.80;99.90
20845;DHT22;10583;49.084;8.646;2022-12-07T13:09:43;5.70;99.90
20845;DHT22;10583;49.084;8.646;2022-12-07T13:12:13;5.70;99.90
20845;DHT22;10583;49.084;8.646;2022-12-07T13:14:57;5.60;99.90
20845;DHT22;10583;49.084;8.646;2022-12-07T13:17:55;5.40;99.90
20845;DHT22;10583;49.084;8.646;2022-12-07T13:20:46;5.30;99.90
20845;DHT22;10583;49.084;8.646;2022-12-07T13:23:18;5.30;99.90
20845;DHT22;10583;49.084;8.646;2022-12-07T13:25:51;5.40;99.90
20845;DHT22;10583;49.084;8.646;2022-12-07T13:28:21;5.30;99.90
20845;DHT22;10583;49.084;8.646;2022-12-07T13:31:00;5.30;99.90
20845;DHT22;10583;49.084;8.646;2022-12-07T13:33:30;5.30;99.90
20845;DHT22;10583;49.084;8.646;2022-12-07T13:35:57;5.30;99.90
20845;DHT22;10583;49.084;8.646;2022-12-07T13:38:29;5.20;99.90
20845;DHT22;10583;49.084;8.646;2022-12-07T13:41:05;5.30;99.90
20845;DHT22;10583;49.084;8.646;2022-12-07T13:43:46;5.30;99.90
20845;DHT22;10583;49.084;8.646;2022-12-07T13:46:14;5.30;99.90
20845;DHT22;10583;49.084;8.646;2022-12-07T13:48:45;5.20;99.90
20845;DHT22;10583;49.084;8.646;2022-12-07T13:51:18;5.20;99.90
20845;DHT22;10583;49.084;8.646;2022-12-07T13:53:51;5.20;99.90
20845;DHT22;10583;49.084;8.646;2022-12-07T13:56:22;5.20;99.90
20845;DHT22;10583;49.084;8.646;2022-12-07T13:58:49;5.20;99.90
20845;DHT22;10583;49.084;8.646;2022-12-07T14:01:15;5.10;99.90
20845;DHT22;10583;49.084;8.646;2022-12-07T14:03:43;5.10;99.90
20845;DHT22;10583;49.084;8.646;2022-12-07T14:06:21;5.00;99.90
20845;DHT22;10583;49.084;8.646;2022-12-07T14:09:06;5.00;99.90
20845;DHT22;10583;49.084;8.646;2022-12-07T14:11:33;5.00;99.90
20845;DHT22;10583;49.084;8.646;2022-12-07T14:14:02;5.00;99.90
20845;DHT22;10583;49.084;8.646;2022-12-07T14:16:32;5.00;99.90
20845;DHT22;10583;49.084;8.646;2022-12-07T14:19:02;5.00;99.90
20845;DHT22;10583;49.084;8.646;2022-12-07T14:21:30;5.00;99.90
20845;DHT22;10583;49.084;8.646;2022-12-07T14:24:11;4.90;99.90
20845;DHT22;10583;49.084;8.646;2022-12-07T14:26:38;4.90;99.90
20845;DHT22;10583;49.084;8.646;2022-12-07T14:29:35;4.90;99.90
20845;DHT22;10583;49.084;8.646;2022-12-07T14:32:22;4.80;99.90
20845;DHT22;10583;49.084;8.646;2022-12-07T14:35:02;4.80;99.90
20845;DHT22;10583;49.084;8.646;2022-12-07T14:37:30;4.70;99.90
20845;DHT22;10583;49.084;8.646;2022-12-07T14:39:58;4.70;99.90
20845;DHT22;10583;49.084;8.646;2022-12-07T14:42:28;4.80;99.90
20845;DHT22;10583;49.084;8.646;2022-12-07T14:44:56;4.80;99.90
20845;DHT22;10583;49.084;8.646;2022-12-07T14:47:23;4.80;99.90
20845;DHT22;10583;49.084;8.646;2022-12-07T14:49:50;4.80;99.90
20845;DHT22;10583;49.084;8.646;2022-12-07T14:52:19;4.80;99.90
20845;DHT22;10583;49.084;8.646;2022-12-07T14:54:47;4.70;99.90
20845;DHT22;10583;49.084;8.646;2022-12-07T14:57:15;4.70;99.90
20845;DHT22;10583;49.084;8.646;2022-12-07T14:59:42;4.70;99.90
20845;DHT22;10583;49.084;8.646;2022-12-07T15:02:10;4.70;99.90
20845;DHT22;10583;49.084;8.646;2022-12-07T15:04:37;4.70;99.90
20845;DHT22;10583;49.084;8.646;2022-12-07T15:07:09;4.70;99.90
20845;DHT22;10583;49.084;8.646;2022-12-07T15:09:37;4.70;99.90
20845;DHT22;10583;49.084;8.646;2022-12-07T15:12:04;4.70;99.90
20845;DHT22;10583;49.084;8.646;2022-12-07T15:14:32;4.60;99.90
20845;DHT22;10583;49.084;8.646;2022-12-07T15:16:59;4.60;99.90
20845;DHT22;10583;49.084;8.646;2022-12-07T15:19:26;4.60;99.90
20845;DHT22;10583;49.084;8.646;2022-12-07T15:21:53;4.50;99.90
20845;DHT22;10583;49.084;8.646;2022-12-07T15:24:20;4.40;99.90
20845;DHT22;10583;49.084;8.646;2022-12-07T15:26:47;4.30;99.90
20845;DHT22;10583;49.084;8.646;2022-12-07T15:29:14;4.20;99.90
20845;DHT22;10583;49.084;8.646;2022-12-07T15:31:43;4.10;99.90
20845;DHT22;10583;49.084;8.646;2022-12-07T15:34:10;4.10;99.90
20845;DHT22;10583;49.084;8.646;2022-12-07T15:36:37;4.00;99.90
20845;DHT22;10583;49.084;8.646;2022-12-07T15:39:04;4.00;99.90
20845;DHT22;10583;49.084;8.646;2022-12-07T15:41:31;3.90;99.90
20845;DHT22;10583;49.084;8.646;2022-12-07T15:43:58;3.90;99.90
20845;DHT22;10583;49.084;8.646;2022-12-07T15:46:43;3.90;99.90
20845;DHT22;10583;49.084;8.646;2022-12-07T15:49:12;3.90;99.90
20845;DHT22;10583;49.084;8.646;2022-12-07T15:51:40;3.90;99.90
20845;DHT22;10583;49.084;8.646;2022-12-07T15:54:06;3.90;99.90
20845;DHT22;10583;49.084;8.646;2022-12-07T15:56:33;3.90;99.90
20845;DHT22;10583;49.084;8.646;2022-12-07T15:59:00;4.00;99.90
20845;DHT22;10583;49.084;8.646;2022-12-07T16:01:27;4.00;99.90
20845;DHT22;10583;49.084;8.646;2022-12-07T16:03:56;4.00;99.90
20845;DHT22;10583;49.084;8.646;2022-12-07T16:06:23;4.00;99.90
20845;DHT22;10583;49.084;8.646;2022-12-07T16:08:50;4.00;99.90
20845;DHT22;10583;49.084;8.646;2022-12-07T16:11:17;4.00;99.90
20845;DHT22;10583;49.084;8.646;2022-12-07T16:13:44;4.00;99.90
20845;DHT22;10583;49.084;8.646;2022-12-07T16:16:12;4.00;99.90